Time;durP1;ratioP1;P1;durP2;ratioP2;P2;SDS_P1;SDS_P2;PMS_P1;PMS_P2;Temp;Humidity;BMP_temperature;BMP_pressure;BME280_temperature;BME280_humidity;BME280_pressure;Samples;Min_cycle;Max_cycle;Signal;HPM_P1;HPM_P2
2023/03/14 00:04:05;;;;;;;3.80;3.40;;;;;;;9.05;70.00;98117.30;217506;1257;139796;-66
2023/03/14 00:09:08;;;;;;;4.30;3.10;;;;;;;9.09;69.71;98115.67;217755;1257;140479;-71
2023/03/14 00:14:11;;;;;;;4.90;3.40;;;;;;;9.09;69.70;98109.51;217499;1259;140131;-67
2023/03/14 00:19:13;;;;;;;6.80;3.60;;;;;;;9.07;69.59;98108.65;217537;1259;140006;-66
2023/03/14 00:24:16;;;;;;;6.60;4.10;;;;;;;9.04;69.49;98100.94;217460;1259;139224;-70
2023/03/14 00:29:18;;;;;;;6.80;2.70;;;;;;;9.04;69.42;98096.10;217582;1256;139653;-67
2023/03/14 00:34:22;;;;;;;6.30;3.80;;;;;;;9.04;69.19;98088.98;217643;1257;140008;-68
2023/03/14 00:39:26;;;;;;;4.70;3.30;;;;;;;9.06;69.19;98086.42;217996;1256;140161;-68
2023/03/14 00:44:29;;;;;;;4.20;2.80;;;;;;;9.04;69.10;98076.11;217585;1260;139924;-70
2023/03/14 05:25:48;;;;;;;9.40;5.70;;;;;;;7.94;69.39;97763.61;215601;1270;139911;-71
2023/03/14 05:30:50;;;;;;;8.40;4.50;;;;;;;8.07;69.51;97753.67;215822;1270;139322;-70
2023/03/14 05:35:52;;;;;;;6.20;4.50;;;;;;;8.24;69.48;97748.14;215596;1270;141185;-71
2023/03/14 05:40:54;;;;;;;11.30;4.90;;;;;;;8.43;69.04;97735.83;215675;1271;140630;-73
2023/03/14 05:45:56;;;;;;;6.30;5.00;;;;;;;8.59;69.02;97728.17;215784;1272;140118;-72
2023/03/14 05:51:01;;;;;;;6.70;3.60;;;;;;;8.74;68.90;97722.66;216145;1269;139931;-72
2023/03/14 05:56:05;;;;;;;4.70;3.20;;;;;;;8.94;68.86;97727.88;216110;1273;140867;-71
2023/03/14 06:01:08;;;;;;;5.40;3.20;;;;;;;9.14;68.53;97737.09;215859;1270;139408;-71
2023/03/14 06:06:10;;;;;;;7.00;5.70;;;;;;;9.30;68.43;97742.21;215798;1270;140270;-72
2023/03/14 06:11:12;;;;;;;10.60;5.70;;;;;;;9.45;68.18;97746.70;215610;1273;139874;-71
2023/03/14 06:16:15;;;;;;;9.30;3.60;;;;;;;9.58;67.96;97741.19;215745;1271;139746;-70
2023/03/14 06:21:19;;;;;;;7.80;4.00;;;;;;;9.69;67.81;97741.39;215905;1271;139876;-70
2023/03/14 06:26:23;;;;;;;3.90;3.10;;;;;;;9.74;67.51;97754.17;216418;1270;139687;-71
2023/03/14 06:31:27;;;;;;;4.90;3.80;;;;;;;9.85;67.62;97753.75;215864;1269;139716;-71
2023/03/14 06:36:30;;;;;;;7.90;4.60;;;;;;;10.03;67.25;97751.66;215383;1270;140534;-72
2023/03/14 06:41:33;;;;;;;5.20;3.50;;;;;;;10.20;67.16;97756.78;215922;1269;140225;-72
2023/03/14 06:46:36;;;;;;;8.00;5.10;;;;;;;10.35;66.82;97758.53;218492;1269;140038;-72
2023/03/14 06:51:39;;;;;;;2.80;2.60;;;;;;;10.47;66.66;97762.66;218624;1270;140173;-72
2023/03/14 06:56:45;;;;;;;6.90;2.80;;;;;;;10.62;66.26;97763.64;218460;1270;141095;-72
2023/03/14 07:01:50;;;;;;;3.80;2.80;;;;;;;10.79;66.31;97757.63;218630;1269;139889;-72
2023/03/14 07:06:54;;;;;;;5.60;3.90;;;;;;;10.97;65.89;97761.02;218551;1270;139837;-72
2023/03/14 07:11:56;;;;;;;11.00;3.90;;;;;;;11.16;65.45;97773.89;218703;1271;140163;-72
2023/03/14 07:16:59;;;;;;;3.90;2.70;;;;;;;11.37;65.25;97773.71;217132;1270;140866;-70
2023/03/14 07:22:03;;;;;;;3.90;3.20;;;;;;;11.63;64.98;97778.38;216587;1270;139759;-72
2023/03/14 07:27:07;;;;;;;5.70;2.60;;;;;;;12.15;64.83;97773.86;217324;1269;139703;-73
2023/03/14 07:32:15;;;;;;;7.20;2.90;;;;;;;13.04;64.47;97799.52;215966;1269;140662;-72
2023/03/14 07:37:18;;;;;;;4.40;2.80;;;;;;;14.11;63.85;97797.90;216471;1270;139860;-73
2023/03/14 07:42:20;;;;;;;5.00;3.30;;;;;;;15.00;62.65;97790.77;216532;1273;140451;-73
2023/03/14 07:47:26;;;;;;;2.70;2.40;;;;;;;14.99;60.99;97785.42;216088;1273;140545;-72
2023/03/14 07:52:29;;;;;;;4.10;2.80;;;;;;;14.63;60.47;97794.81;215907;1270;140012;-72
2023/03/14 07:57:32;;;;;;;4.10;2.90;;;;;;;14.37;60.33;97810.57;215909;1273;140248;-72
2023/03/14 08:02:36;;;;;;;7.70;2.90;;;;;;;14.11;60.22;97810.34;215879;1271;140182;-72
2023/03/14 08:07:38;;;;;;;3.30;2.60;;;;;;;14.20;60.84;97812.11;215796;1271;140548;-71
2023/03/14 08:12:40;;;;;;;3.20;2.40;;;;;;;14.37;60.69;97821.08;216205;1271;141429;-73
2023/03/14 08:17:43;;;;;;;3.40;2.50;;;;;;;14.42;60.36;97817.39;215864;1270;140311;-73
2023/03/14 08:22:47;;;;;;;5.40;3.00;;;;;;;14.31;59.80;97811.54;216022;1270;140584;-73
2023/03/14 08:27:49;;;;;;;2.70;2.50;;;;;;;14.12;60.15;97807.63;216268;1271;140708;-73
2023/03/14 08:32:52;;;;;;;5.20;3.00;;;;;;;14.03;60.02;97815.69;215825;1271;140071;-72
2023/03/14 08:37:55;;;;;;;6.20;2.60;;;;;;;14.00;60.02;97825.63;215834;1271;140130;-72
2023/03/14 08:42:57;;;;;;;4.40;2.90;;;;;;;13.88;59.91;97812.82;215899;1273;140421;-72
2023/03/14 08:48:00;;;;;;;3.90;3.10;;;;;;;13.87;60.06;97796.98;215822;1271;140621;-72
2023/03/14 08:53:03;;;;;;;4.40;3.70;;;;;;;13.81;59.90;97789.27;216232;1271;140318;-73
2023/03/14 08:58:06;;;;;;;6.00;2.90;;;;;;;13.77;59.97;97796.55;215967;1269;139562;-73
2023/03/14 09:03:10;;;;;;;5.30;3.50;;;;;;;13.76;59.94;97793.05;218614;1270;140826;-73
2023/03/14 09:08:14;;;;;;;3.80;3.00;;;;;;;13.72;59.85;97792.72;217712;1270;140035;-73
2023/03/14 09:13:18;;;;;;;6.10;3.30;;;;;;;13.68;59.78;97794.86;215969;1271;140537;-73
2023/03/14 09:18:22;;;;;;;3.60;3.10;;;;;;;13.69;59.94;97781.64;217354;1270;140326;-72
2023/03/14 09:23:26;;;;;;;5.60;2.40;;;;;;;13.90;60.22;97791.23;215830;1271;140475;-73
2023/03/14 09:28:30;;;;;;;3.20;2.60;;;;;;;14.28;60.09;97788.13;215883;1270;150091;-72
2023/03/14 09:33:34;;;;;;;6.40;3.20;;;;;;;14.56;59.74;97784.98;216272;1271;139728;-73
2023/03/14 09:38:38;;;;;;;4.60;3.20;;;;;;;14.82;59.56;97791.27;216184;1273;139969;-73
2023/03/14 09:43:44;;;;;;;9.20;4.00;;;;;;;15.12;59.27;97804.76;216496;1270;139957;-73
2023/03/14 09:48:48;;;;;;;3.70;3.40;;;;;;;15.11;58.61;97807.04;215898;1271;139941;-73
2023/03/14 09:53:51;;;;;;;7.80;3.50;;;;;;;14.99;58.28;97800.55;215846;1271;140685;-76
2023/03/14 09:59:04;;;;;;;5.70;3.50;;;;;;;14.84;58.31;97793.61;216364;1270;139698;-73
2023/03/14 10:04:15;;;;;;;5.00;2.80;;;;;;;14.73;58.37;97787.15;215864;1273;139500;-73
2023/03/14 10:09:25;;;;;;;4.30;2.80;;;;;;;14.61;58.42;97790.60;216078;1270;140373;-72
2023/03/14 10:14:35;;;;;;;5.90;3.70;;;;;;;14.49;58.48;97787.18;216169;1273;140368;-73
2023/03/14 10:19:59;;;;;;;11.00;3.60;;;;;;;14.26;58.43;97799.48;216065;1269;139535;-73
2023/03/14 10:25:07;;;;;;;3.90;3.10;;;;;;;14.14;58.71;97802.13;217405;1272;140540;-73
2023/03/14 10:30:35;;;;;;;5.30;2.90;;;;;;;13.93;58.44;97808.31;216007;1273;139745;-73
2023/03/14 10:35:39;;;;;;;4.60;3.20;;;;;;;13.83;58.89;97806.96;215985;1270;140232;-73
2023/03/14 10:40:49;;;;;;;6.90;3.40;;;;;;;13.67;58.74;97804.71;215907;1270;139532;-73
2023/03/14 10:46:15;;;;;;;5.30;4.00;;;;;;;13.47;59.01;97815.79;216366;1273;139781;-77
2023/03/14 10:51:28;;;;;;;2.20;2.00;;;;;;;13.30;59.17;97809.56;216508;1271;140266;-73
2023/03/14 10:56:36;;;;;;;6.20;3.80;;;;;;;13.08;59.46;97831.05;218654;1271;139873;-75
2023/03/14 11:02:10;;;;;;;8.20;3.80;;;;;;;12.89;59.52;97837.89;218307;1271;140406;-73
2023/03/14 11:07:33;;;;;;;5.10;3.90;;;;;;;12.64;60.04;97836.41;216270;1273;140618;-72
2023/03/14 11:12:40;;;;;;;3.60;3.10;;;;;;;12.45;60.36;97847.27;215689;1269;140469;-73
2023/03/14 11:18:20;;;;;;;9.30;4.20;;;;;;;12.27;61.09;97854.89;215879;1269;139127;-72
2023/03/14 11:24:00;;;;;;;6.00;4.70;;;;;;;12.07;61.69;97863.62;216227;1271;139559;-73
2023/03/14 11:29:41;;;;;;;6.80;3.80;;;;;;;11.82;62.36;97872.09;217295;1271;140215;-73
2023/03/14 11:34:53;;;;;;;8.60;3.80;;;;;;;11.67;63.55;97870.81;216108;1270;139369;-73
2023/03/14 11:40:24;;;;;;;3.90;3.40;;;;;;;11.65;64.37;97867.64;216082;1273;140171;-73
2023/03/14 11:45:39;;;;;;;6.90;4.50;;;;;;;11.64;65.07;97868.60;216198;1270;139411;-73
2023/03/14 11:50:46;;;;;;;8.00;4.90;;;;;;;11.59;65.67;97857.31;215889;1270;140635;-73
2023/03/14 11:55:51;;;;;;;4.10;3.70;;;;;;;11.45;66.31;97852.31;216535;1271;141654;-73
2023/03/14 12:01:01;;;;;;;5.00;4.50;;;;;;;11.36;66.97;97846.23;215842;1271;140435;-72
2023/03/14 12:06:37;;;;;;;6.00;4.90;;;;;;;11.31;67.60;97841.12;216508;1271;141505;-72
2023/03/14 12:12:14;;;;;;;5.00;4.20;;;;;;;11.14;67.89;97834.87;215908;1271;140428;-72
2023/03/14 12:17:36;;;;;;;6.70;4.30;;;;;;;10.98;68.71;97830.83;216064;1269;140122;-72
2023/03/14 12:22:53;;;;;;;5.90;4.00;;;;;;;10.81;69.45;97824.88;215946;1271;140381;-72
2023/03/14 12:27:58;;;;;;;8.50;5.30;;;;;;;10.74;70.03;97817.48;215708;1270;140959;-72
2023/03/14 12:33:08;;;;;;;7.30;5.00;;;;;;;10.68;70.43;97817.88;215819;1270;141886;-73
2023/03/14 12:38:14;;;;;;;6.60;4.40;;;;;;;10.65;71.06;97819.03;217455;1270;139354;-72
2023/03/14 12:43:30;;;;;;;7.10;4.40;;;;;;;10.73;71.44;97826.67;217682;1270;140866;-72
2023/03/14 12:48:33;;;;;;;5.90;4.70;;;;;;;10.99;71.56;97819.73;215764;1269;140908;-72
2023/03/14 12:54:01;;;;;;;5.30;4.50;;;;;;;11.07;71.54;97800.92;215834;1273;140214;-72
2023/03/14 12:59:05;;;;;;;7.90;4.90;;;;;;;11.08;71.98;97792.43;216190;1273;140732;-73
2023/03/14 13:04:11;;;;;;;5.50;4.20;;;;;;;11.07;71.96;97780.65;217231;1271;142168;-73
2023/03/14 13:09:29;;;;;;;5.40;4.90;;;;;;;11.06;72.04;97779.66;215825;1273;140673;-72
2023/03/14 13:14:31;;;;;;;8.40;5.10;;;;;;;11.00;72.34;97776.63;216055;1273;139129;-72
2023/03/14 13:19:34;;;;;;;7.20;5.00;;;;;;;10.96;72.39;97781.61;215782;1273;141205;-72
2023/03/14 13:24:36;;;;;;;4.80;3.50;;;;;;;10.88;72.68;97776.15;215717;1271;140206;-73
2023/03/14 13:29:39;;;;;;;5.20;4.60;;;;;;;10.76;72.65;97784.84;215771;1273;140469;-72
2023/03/14 13:34:41;;;;;;;6.40;4.60;;;;;;;10.70;73.14;97773.36;215966;1273;139752;-72
2023/03/14 13:39:58;;;;;;;7.60;4.80;;;;;;;10.69;73.16;97774.59;215921;1270;141287;-74
2023/03/14 13:45:03;;;;;;;8.60;5.00;;;;;;;10.67;73.33;97782.36;215818;1273;140274;-73
2023/03/14 13:50:15;;;;;;;5.00;4.60;;;;;;;10.63;73.76;97791.39;215948;1270;140139;-72
2023/03/14 13:55:18;;;;;;;10.20;5.30;;;;;;;10.65;73.58;97781.15;215668;1270;140523;-74
2023/03/14 14:00:26;;;;;;;8.50;4.50;;;;;;;10.62;73.81;97783.05;215720;1273;139437;-72
2023/03/14 14:05:32;;;;;;;7.50;4.20;;;;;;;10.65;74.10;97789.67;216295;1273;139448;-72
2023/03/14 14:10:38;;;;;;;8.70;4.00;;;;;;;10.66;73.90;97784.39;215956;1273;140891;-71
2023/03/14 14:15:44;;;;;;;7.10;3.70;;;;;;;10.69;73.85;97785.15;217095;1273;141301;-71
2023/03/14 14:20:48;;;;;;;4.60;4.10;;;;;;;10.73;74.07;97775.98;217001;1270;140261;-71
2023/03/14 14:25:52;;;;;;;3.90;3.30;;;;;;;10.81;74.15;97778.30;215864;1273;140342;-70
2023/03/14 14:31:19;;;;;;;4.60;2.80;;;;;;;10.89;74.04;97774.42;216686;1271;140761;-70
2023/03/14 14:36:45;;;;;;;5.50;4.50;;;;;;;10.93;73.83;97771.34;217099;1270;139839;-71
2023/03/14 14:41:50;;;;;;;9.50;4.20;;;;;;;10.92;73.77;97774.29;215665;1273;139628;-70
2023/03/14 14:46:55;;;;;;;6.50;4.00;;;;;;;10.89;73.71;97769.41;217132;1274;140455;-73
2023/03/14 14:52:04;;;;;;;;;;;;;;;10.96;74.05;97763.96;216089;1274;141177;-69
2023/03/14 14:57:30;;;;;;;5.10;3.50;;;;;;;10.96;73.74;97758.52;218895;1271;126786;-72
2023/03/14 15:02:46;;;;;;;4.90;4.00;;;;;;;11.03;73.61;97761.07;216104;1274;140608;-71
2023/03/14 15:07:50;;;;;;;6.20;3.90;;;;;;;11.06;73.48;97764.19;218400;1270;140933;-71
2023/03/14 15:12:53;;;;;;;4.80;3.10;;;;;;;10.97;73.41;97756.31;215813;1274;140628;-70
2023/03/14 15:17:55;;;;;;;10.40;5.60;;;;;;;10.88;73.51;97762.50;215577;1270;140718;-71
2023/03/14 15:22:58;;;;;;;22.40;12.50;;;;;;;10.85;73.70;97765.99;215884;1270;140657;-67
2023/03/14 15:28:00;;;;;;;147.90;67.20;;;;;;;10.76;73.50;97762.93;215736;1270;139765;-70
2023/03/14 15:33:02;;;;;;;24.80;12.60;;;;;;;10.71;73.93;97768.43;215672;1275;139946;-67
2023/03/14 15:38:05;;;;;;;12.90;9.70;;;;;;;10.71;73.74;97762.15;215608;1274;140453;-71
2023/03/14 15:43:09;;;;;;;17.10;11.40;;;;;;;10.66;73.71;97751.77;215610;1270;141903;-70
2023/03/14 15:48:21;;;;;;;20.30;14.40;;;;;;;10.58;73.82;97746.42;215688;1273;142026;-72
2023/03/14 15:53:30;;;;;;;27.40;22.40;;;;;;;10.54;73.94;97752.90;215761;1270;139699;-73
2023/03/14 15:58:33;;;;;;;12.30;6.30;;;;;;;10.48;73.83;97750.13;216698;1273;142237;-73
2023/03/14 16:03:36;;;;;;;7.00;5.60;;;;;;;10.40;74.11;97758.36;215498;1274;139890;-73
2023/03/14 16:08:40;;;;;;;8.90;5.60;;;;;;;10.31;74.17;97761.45;216088;1270;140246;-73
2023/03/14 16:13:43;;;;;;;10.00;4.60;;;;;;;10.21;74.07;97768.23;215529;1270;141336;-74
2023/03/14 16:18:45;;;;;;;6.80;4.70;;;;;;;10.11;74.53;97769.14;215067;1275;264445;-74
2023/03/14 16:23:48;;;;;;;10.80;5.20;;;;;;;10.06;74.66;97768.98;215274;1270;140755;-72
2023/03/14 16:28:50;;;;;;;6.60;5.00;;;;;;;10.06;74.72;97759.84;215242;1273;140710;-74
2023/03/14 16:33:52;;;;;;;7.00;5.20;;;;;;;10.02;74.86;97762.80;214995;1270;139420;-74
2023/03/14 16:38:55;;;;;;;8.60;5.90;;;;;;;9.93;74.96;97763.44;217485;1270;141229;-75
2023/03/14 16:43:58;;;;;;;16.80;9.60;;;;;;;9.84;74.97;97774.09;215295;1273;141450;-74
2023/03/14 16:49:00;;;;;;;11.30;7.10;;;;;;;9.83;75.21;97784.05;216310;1270;140071;-75
2023/03/14 16:54:04;;;;;;;7.80;6.20;;;;;;;9.74;75.23;97776.77;218521;1269;139669;-75
2023/03/14 16:59:06;;;;;;;14.10;8.40;;;;;;;9.59;75.32;97787.41;217974;1270;140336;-74
2023/03/14 17:04:08;;;;;;;8.90;7.60;;;;;;;9.50;75.39;97794.11;215407;1273;140797;-74
2023/03/14 17:09:11;;;;;;;18.40;16.50;;;;;;;9.42;75.53;97802.67;215545;1270;140279;-75
2023/03/14 17:14:12;;;;;;;21.30;12.60;;;;;;;9.33;75.84;97801.77;215454;1273;140629;-73
2023/03/14 17:19:15;;;;;;;25.20;17.60;;;;;;;9.23;75.98;97807.16;215567;1273;139657;-72
2023/03/14 17:24:18;;;;;;;10.50;8.00;;;;;;;9.17;76.01;97808.52;215475;1270;141138;-69
2023/03/14 17:29:21;;;;;;;15.30;9.80;;;;;;;9.08;76.18;97812.09;215586;1270;141166;-70
2023/03/14 17:34:23;;;;;;;17.80;11.10;;;;;;;8.95;76.47;97815.35;215587;1270;139425;-70
2023/03/14 17:39:27;;;;;;;13.80;9.00;;;;;;;8.87;76.52;97821.49;215774;1273;139935;-70
2023/03/14 17:44:30;;;;;;;13.10;10.80;;;;;;;8.84;76.56;97824.48;215369;1271;141593;-69
2023/03/14 17:49:34;;;;;;;24.20;14.30;;;;;;;8.81;76.93;97826.73;215395;1273;233964;-69
2023/03/14 17:54:36;;;;;;;12.40;9.40;;;;;;;8.73;77.03;97820.58;215640;1270;139815;-69
2023/03/14 17:59:39;;;;;;;11.80;8.90;;;;;;;8.70;77.20;97821.96;215992;1273;144413;-70
2023/03/14 18:04:41;;;;;;;20.70;11.40;;;;;;;8.68;77.25;97822.39;215446;1271;139780;-69
2023/03/14 18:09:44;;;;;;;14.90;9.50;;;;;;;8.64;77.43;97817.13;215448;1273;141401;-70
2023/03/14 18:14:47;;;;;;;12.60;9.10;;;;;;;8.59;77.67;97816.23;215810;1270;139168;-70
2023/03/14 18:19:49;;;;;;;14.90;9.10;;;;;;;8.59;77.48;97819.05;215428;1274;139965;-70
2023/03/14 18:24:52;;;;;;;12.70;8.40;;;;;;;8.56;77.63;97823.58;215383;1270;140679;-70
2023/03/14 18:29:55;;;;;;;11.50;8.60;;;;;;;8.52;78.02;97827.21;217722;1270;139314;-71
2023/03/14 18:34:57;;;;;;;12.70;9.10;;;;;;;8.47;78.19;97833.36;217627;1270;140639;-72
2023/03/14 18:39:59;;;;;;;10.20;7.20;;;;;;;8.47;78.16;97837.45;215645;1273;140951;-72
2023/03/14 18:45:03;;;;;;;12.30;8.20;;;;;;;8.40;78.14;97843.08;215604;1270;140336;-72
2023/03/14 18:50:07;;;;;;;12.70;8.90;;;;;;;8.33;78.67;97843.39;215823;1273;139403;-72
2023/03/14 18:55:10;;;;;;;14.20;9.20;;;;;;;8.28;78.68;97845.50;217075;1270;140893;-73
2023/03/14 19:00:14;;;;;;;10.80;8.50;;;;;;;8.20;78.79;97851.02;216627;1270;140866;-72
2023/03/14 19:05:16;;;;;;;16.60;9.30;;;;;;;8.18;78.95;97855.75;215978;1270;140836;-73
2023/03/14 19:10:18;;;;;;;21.30;10.20;;;;;;;8.21;79.16;97854.69;215637;1270;140939;-72
2023/03/14 19:15:21;;;;;;;14.00;12.50;;;;;;;8.20;79.39;97857.72;215568;1273;140103;-74
2023/03/14 19:20:24;;;;;;;16.20;9.50;;;;;;;8.16;79.63;97858.35;215462;1273;139677;-74
2023/03/14 19:25:27;;;;;;;15.70;8.90;;;;;;;8.17;79.59;97851.40;215440;1270;141315;-73
2023/03/14 19:30:29;;;;;;;8.50;6.00;;;;;;;8.19;79.78;97844.66;215509;1270;139712;-75
2023/03/14 19:35:32;;;;;;;12.90;8.30;;;;;;;8.14;80.03;97852.83;215478;1273;140040;-75
2023/03/14 19:40:37;;;;;;;13.00;8.30;;;;;;;8.17;80.30;97851.77;215606;1273;139647;-75
2023/03/14 19:45:41;;;;;;;10.30;8.20;;;;;;;8.23;80.39;97855.12;215677;1276;140317;-74
2023/03/14 19:50:45;;;;;;;13.40;10.30;;;;;;;8.27;80.55;97860.46;215807;1270;140410;-73
2023/03/14 19:55:49;;;;;;;14.20;9.40;;;;;;;8.35;80.71;97862.66;215541;1270;141956;-72
2023/03/14 20:00:52;;;;;;;10.30;6.70;;;;;;;8.43;80.59;97858.02;215650;1270;163205;-69
2023/03/14 20:05:55;;;;;;;10.50;7.30;;;;;;;8.46;80.69;97857.91;215324;1273;141470;-69
2023/03/14 20:10:58;;;;;;;7.70;6.80;;;;;;;8.53;80.79;97857.27;216033;1270;140189;-71
2023/03/14 20:16:03;;;;;;;8.70;6.90;;;;;;;8.58;80.48;97851.98;215812;1273;140954;-71
2023/03/14 20:21:08;;;;;;;7.40;6.10;;;;;;;8.62;80.56;97855.11;215843;1271;140784;-71
2023/03/14 20:26:12;;;;;;;9.80;7.60;;;;;;;8.70;80.27;97858.45;215887;1273;141320;-71
2023/03/14 20:31:15;;;;;;;9.20;7.10;;;;;;;8.74;80.23;97860.69;215647;1270;139745;-71
2023/03/14 20:36:18;;;;;;;12.30;6.90;;;;;;;8.76;80.33;97867.55;215776;1270;139412;-70
2023/03/14 20:41:22;;;;;;;9.90;6.40;;;;;;;8.80;80.12;97869.66;215710;1270;140041;-69
2023/03/14 20:46:25;;;;;;;9.50;7.10;;;;;;;8.82;80.07;97878.91;215464;1270;139526;-70
2023/03/14 20:51:29;;;;;;;11.90;6.90;;;;;;;8.83;79.91;97890.55;218671;1270;138827;-71
2023/03/14 20:56:32;;;;;;;8.10;7.10;;;;;;;8.86;79.90;97885.91;218383;1269;140275;-68
2023/03/14 21:01:37;;;;;;;11.80;7.60;;;;;;;8.90;79.68;97877.59;216155;1270;141818;-69
2023/03/14 21:06:44;;;;;;;9.00;6.20;;;;;;;8.90;79.77;97883.02;215436;1270;140557;-68
2023/03/14 21:11:48;;;;;;;8.80;6.50;;;;;;;8.92;79.42;97888.54;215812;1271;140379;-68
2023/03/14 21:16:59;;;;;;;8.60;5.90;;;;;;;8.95;79.38;97894.38;216118;1270;140760;-68
2023/03/14 21:22:06;;;;;;;9.60;6.90;;;;;;;8.94;79.50;97896.24;215422;1273;139403;-69
2023/03/14 21:27:11;;;;;;;13.90;7.10;;;;;;;8.94;79.36;97901.02;216209;1270;140409;-70
2023/03/14 21:32:13;;;;;;;10.90;6.30;;;;;;;8.98;79.34;97904.38;215475;1271;141003;-69
2023/03/14 21:37:16;;;;;;;8.80;6.50;;;;;;;8.96;79.36;97911.70;215604;1273;140612;-69
2023/03/14 21:42:20;;;;;;;10.40;7.40;;;;;;;8.95;79.15;97918.09;215789;1270;140743;-70
2023/03/14 21:47:22;;;;;;;8.80;7.50;;;;;;;8.99;79.22;97934.24;215583;1270;140130;-70
2023/03/14 21:52:25;;;;;;;12.60;6.80;;;;;;;9.02;79.34;97945.03;215640;1270;140053;-69
2023/03/14 21:57:28;;;;;;;10.00;6.20;;;;;;;8.99;79.42;97945.67;215653;1270;139685;-70
2023/03/14 22:02:32;;;;;;;10.60;6.90;;;;;;;8.97;79.35;97951.73;216051;1270;140167;-69
2023/03/14 22:07:38;;;;;;;12.00;7.90;;;;;;;8.99;79.36;97959.59;216268;1270;140236;-74
2023/03/14 22:12:41;;;;;;;8.30;7.00;;;;;;;9.01;79.27;97966.29;215676;1270;140387;-76
2023/03/14 22:17:44;;;;;;;7.80;6.10;;;;;;;9.05;78.99;97974.69;216398;1270;141028;-70
2023/03/14 22:22:47;;;;;;;11.60;6.20;;;;;;;9.08;78.93;97989.42;217299;1270;140727;-68
2023/03/14 22:27:50;;;;;;;8.30;5.90;;;;;;;9.05;78.69;98009.08;216146;1270;141182;-69
2023/03/14 22:32:55;;;;;;;6.70;4.20;;;;;;;9.03;78.23;98049.91;215691;1271;140431;-70
2023/03/14 22:37:59;;;;;;;2.30;2.20;;;;;;;8.83;77.32;98099.52;216948;1270;140471;-68
2023/03/14 22:43:01;;;;;;;1.80;1.70;;;;;;;8.36;76.55;98130.29;215673;1270;140725;-70
2023/03/14 22:48:04;;;;;;;2.30;2.10;;;;;;;7.83;75.96;98167.97;215658;1270;140184;-69
2023/03/14 22:53:08;;;;;;;1.60;1.60;;;;;;;7.24;75.43;98202.73;217961;1270;140383;-68
2023/03/14 22:58:11;;;;;;;1.50;1.40;;;;;;;6.71;75.04;98229.97;216186;1269;140731;-68
2023/03/14 23:03:14;;;;;;;1.60;1.50;;;;;;;6.20;74.52;98261.36;216732;1270;141216;-68
2023/03/14 23:08:17;;;;;;;0.90;0.90;;;;;;;5.76;75.07;98293.33;216719;1269;139403;-70
2023/03/14 23:13:20;;;;;;;0.80;0.80;;;;;;;5.46;75.05;98313.84;215643;1270;139543;-70
2023/03/14 23:18:26;;;;;;;1.40;1.00;;;;;;;5.18;75.50;98336.02;215475;1270;139968;-68
2023/03/14 23:23:29;;;;;;;0.90;0.70;;;;;;;4.98;75.40;98355.37;215348;1270;139637;-68
2023/03/14 23:28:32;;;;;;;1.80;0.90;;;;;;;4.84;75.11;98383.10;215639;1270;139688;-69
2023/03/14 23:33:36;;;;;;;1.50;1.00;;;;;;;4.56;75.12;98391.86;216372;1270;139134;-68
2023/03/14 23:38:41;;;;;;;1.40;0.70;;;;;;;4.42;75.51;98421.94;215854;1273;139742;-66
2023/03/14 23:43:46;;;;;;;1.70;0.80;;;;;;;4.28;75.47;98447.64;216717;1270;139975;-68
2023/03/14 23:48:49;;;;;;;1.80;1.40;;;;;;;4.12;75.64;98461.79;215694;1273;139968;-67
2023/03/14 23:53:52;;;;;;;1.00;1.00;;;;;;;4.01;75.92;98476.57;216802;1269;139952;-68
2023/03/14 23:58:55;;;;;;;2.20;1.10;;;;;;;3.97;76.06;98486.57;216113;1270;140504;-67
